Time;durP1;ratioP1;P1;durP2;ratioP2;P2;SDS_P1;SDS_P2;PMS_P1;PMS_P2;Temp;Humidity;BMP_temperature;BMP_pressure;BME280_temperature;BME280_humidity;BME280_pressure;Samples;Min_cycle;Max_cycle;Signal;HPM_P1;HPM_P2
2023/09/13 00:01:33;;;;;;;15.10;13.70;;;;;;;;;;5057742;28;20084;-81
2023/09/13 00:04:00;;;;;;;16.85;15.07;;;;;;;;;;5057309;28;20119;-81
2023/09/13 00:06:26;;;;;;;14.98;13.70;;;;;;;;;;5057383;28;20086;-81
2023/09/13 00:08:52;;;;;;;15.95;14.38;;;;;;;;;;5041283;28;20070;-82
2023/09/13 00:11:18;;;;;;;14.50;13.35;;;;;;;;;;5057599;28;20048;-81
2023/09/13 00:13:44;;;;;;;16.15;14.48;;;;;;;;;;5041046;28;20136;-82
2023/09/13 00:16:11;;;;;;;15.77;14.27;;;;;;;;;;5041246;28;20048;-82
2023/09/13 00:18:37;;;;;;;14.65;13.38;;;;;;;;;;5040341;28;20052;-82
2023/09/13 00:21:04;;;;;;;18.25;16.33;;;;;;;;;;5057703;28;20052;-81
2023/09/13 00:23:30;;;;;;;15.75;14.25;;;;;;;;;;5057485;28;20476;-81
2023/09/13 00:25:56;;;;;;;17.13;15.48;;;;;;;;;;5056387;28;20052;-82
2023/09/13 00:28:22;;;;;;;23.42;17.98;;;;;;;;;;5040328;28;20056;-82
2023/09/13 00:30:48;;;;;;;20.55;18.30;;;;;;;;;;5040822;28;20476;-81
2023/09/13 00:33:14;;;;;;;21.33;18.67;;;;;;;;;;5057503;28;20059;-82
2023/09/13 00:35:40;;;;;;;45.40;25.85;;;;;;;;;;5040497;28;20049;-82
2023/09/13 00:38:07;;;;;;;22.30;19.92;;;;;;;;;;5040273;28;20046;-82
2023/09/13 00:40:33;;;;;;;21.67;19.30;;;;;;;;;;5074806;28;20062;-81
2023/09/13 00:42:59;;;;;;;23.65;18.83;;;;;;;;;;5040734;28;20044;-82
2023/09/13 00:45:26;;;;;;;25.70;22.10;;;;;;;;;;5057210;28;20396;-82
2023/09/13 00:47:52;;;;;;;21.48;19.27;;;;;;;;;;5057308;28;20131;-81
2023/09/13 00:50:19;;;;;;;22.60;20.05;;;;;;;;;;5057013;28;20045;-82
2023/09/13 00:52:46;;;;;;;22.23;20.10;;;;;;;;;;5040936;28;20056;-82
2023/09/13 00:55:13;;;;;;;23.40;19.58;;;;;;;;;;5057079;28;20044;-82
2023/09/13 00:57:39;;;;;;;22.48;19.10;;;;;;;;;;5040351;28;20059;-82
2023/09/13 01:00:09;;;;;;;23.33;18.38;;;;;;;;;;5074945;28;20037;-82
2023/09/13 01:02:38;;;;;;;19.65;17.60;;;;;;;;;;5040914;28;20044;-81
2023/09/13 01:05:04;;;;;;;27.73;19.13;;;;;;;;;;5057088;28;20051;-82
2023/09/13 01:07:32;;;;;;;22.30;18.20;;;;;;;;;;5057285;28;20094;-81
2023/09/13 01:09:58;;;;;;;22.58;17.10;;;;;;;;;;5056699;28;20135;-81
2023/09/13 01:12:24;;;;;;;20.40;16.25;;;;;;;;;;5074399;28;20091;-81
2023/09/13 01:14:50;;;;;;;26.02;17.60;;;;;;;;;;5056477;28;20098;-81
2023/09/13 01:17:39;;;;;;;22.20;16.00;;;;;;;;;;5057086;28;20044;-82
2023/09/13 01:20:06;;;;;;;22.63;15.05;;;;;;;;;;5056654;28;20043;-81
2023/09/13 01:22:44;;;;;;;23.10;14.95;;;;;;;;;;5057045;28;20051;-82
2023/09/13 01:25:10;;;;;;;19.25;14.70;;;;;;;;;;5074420;28;20079;-81
2023/09/13 01:27:59;;;;;;;17.27;14.93;;;;;;;;;;5056462;28;20049;-81
2023/09/13 01:30:26;;;;;;;21.10;13.85;;;;;;;;;;5055985;28;20044;-81
2023/09/13 01:32:52;;;;;;;22.40;15.20;;;;;;;;;;5040103;28;20434;-81
2023/09/13 01:35:18;;;;;;;25.33;16.10;;;;;;;;;;5056734;28;20131;-81
2023/09/13 01:37:44;;;;;;;24.13;15.15;;;;;;;;;;5057859;28;20044;-82
2023/09/13 01:40:10;;;;;;;22.70;15.07;;;;;;;;;;5064511;28;20048;-81
2023/09/13 01:42:40;;;;;;;18.25;13.82;;;;;;;;;;5063947;28;20162;-81
2023/09/13 01:45:10;;;;;;;23.48;13.75;;;;;;;;;;5080774;28;20126;-81
2023/09/13 01:47:38;;;;;;;21.95;13.63;;;;;;;;;;5098165;28;20101;-81
2023/09/13 01:50:04;;;;;;;17.33;12.77;;;;;;;;;;5080971;28;20369;-81
2023/09/13 01:52:31;;;;;;;14.00;12.55;;;;;;;;;;5080355;28;20044;-81
2023/09/13 01:54:57;;;;;;;19.48;11.48;;;;;;;;;;5080056;28;20051;-81
2023/09/13 01:57:23;;;;;;;15.00;11.85;;;;;;;;;;5079142;28;20087;-80
2023/09/13 01:59:49;;;;;;;21.58;11.93;;;;;;;;;;5079749;28;20044;-80
2023/09/13 02:02:15;;;;;;;19.45;10.80;;;;;;;;;;5080025;28;20040;-81
2023/09/13 02:04:41;;;;;;;16.52;10.57;;;;;;;;;;5079895;28;20392;-80
2023/09/13 02:07:08;;;;;;;15.32;10.50;;;;;;;;;;5063365;28;20048;-80
2023/09/13 02:09:34;;;;;;;17.80;10.55;;;;;;;;;;5080064;28;20044;-80
2023/09/13 02:12:00;;;;;;;20.83;10.50;;;;;;;;;;5063550;28;20494;-80
2023/09/13 02:14:26;;;;;;;18.30;9.95;;;;;;;;;;5080246;28;20116;-80
2023/09/13 02:16:52;;;;;;;19.05;10.18;;;;;;;;;;5079711;28;20060;-81
2023/09/13 02:19:18;;;;;;;16.95;9.70;;;;;;;;;;5079930;28;20404;-80
2023/09/13 02:21:46;;;;;;;17.80;9.07;;;;;;;;;;5079461;28;20511;-80
2023/09/13 02:24:12;;;;;;;16.20;8.30;;;;;;;;;;5079916;28;20123;-80
2023/09/13 02:26:38;;;;;;;17.33;8.30;;;;;;;;;;5062705;28;20098;-81
2023/09/13 02:29:04;;;;;;;15.25;7.97;;;;;;;;;;5063442;28;20044;-81
2023/09/13 02:31:31;;;;;;;14.20;6.38;;;;;;;;;;5079389;28;20096;-81
2023/09/13 02:33:57;;;;;;;16.40;7.25;;;;;;;;;;5079718;28;20094;-80
2023/09/13 02:36:23;;;;;;;12.25;6.22;;;;;;;;;;5079594;28;20056;-81
2023/09/13 02:38:52;;;;;;;17.52;6.00;;;;;;;;;;5062778;28;20051;-80
2023/09/13 02:41:18;;;;;;;11.13;5.60;;;;;;;;;;5078571;28;20055;-80
2023/09/13 02:43:44;;;;;;;10.35;5.05;;;;;;;;;;5079065;28;20056;-79
2023/09/13 02:46:10;;;;;;;13.05;5.65;;;;;;;;;;5097601;28;20494;-79
2023/09/13 02:48:37;;;;;;;11.10;4.78;;;;;;;;;;5078982;28;20083;-80
2023/09/13 02:51:03;;;;;;;12.02;4.32;;;;;;;;;;5079156;28;20075;-80
2023/09/13 02:53:30;;;;;;;9.38;4.50;;;;;;;;;;5097072;28;20400;-79
2023/09/13 02:56:04;;;;;;;7.78;4.03;;;;;;;;;;5078701;28;20106;-80
2023/09/13 02:58:30;;;;;;;8.13;3.30;;;;;;;;;;5078995;28;20043;-80
2023/09/13 03:00:57;;;;;;;10.45;3.60;;;;;;;;;;5078654;28;20047;-80
2023/09/13 03:03:23;;;;;;;6.90;2.88;;;;;;;;;;5078467;28;20401;-80
2023/09/13 03:05:49;;;;;;;7.63;2.95;;;;;;;;;;5078803;28;20055;-80
2023/09/13 03:08:15;;;;;;;6.22;2.85;;;;;;;;;;5078779;28;20131;-80
2023/09/13 03:10:41;;;;;;;8.68;2.60;;;;;;;;;;5061693;28;20105;-80
2023/09/13 03:13:07;;;;;;;8.02;2.90;;;;;;;;;;5078681;28;20546;-81
2023/09/13 03:15:33;;;;;;;7.85;2.75;;;;;;;;;;5078589;28;20043;-80
2023/09/13 03:18:00;;;;;;;6.00;2.90;;;;;;;;;;5096690;28;20043;-81
2023/09/13 03:20:26;;;;;;;7.63;3.00;;;;;;;;;;5077974;28;20040;-81
2023/09/13 03:22:55;;;;;;;7.80;2.75;;;;;;;;;;5078159;28;20113;-80
2023/09/13 03:25:21;;;;;;;9.00;3.00;;;;;;;;;;5061182;28;20083;-81
2023/09/13 03:27:48;;;;;;;9.73;3.10;;;;;;;;;;5095390;28;20047;-80
2023/09/13 03:30:14;;;;;;;10.73;2.95;;;;;;;;;;5077448;28;20134;-80
2023/09/13 03:32:40;;;;;;;8.90;3.03;;;;;;;;;;5077856;28;20123;-80
2023/09/13 03:35:07;;;;;;;8.32;2.92;;;;;;;;;;5078434;28;20044;-80
2023/09/13 03:37:35;;;;;;;10.20;3.20;;;;;;;;;;5096167;28;20040;-80
2023/09/13 03:40:05;;;;;;;11.25;2.92;;;;;;;;;;5092468;28;20369;-80
2023/09/13 03:42:31;;;;;;;8.77;2.88;;;;;;;;;;5058144;28;20408;-81
2023/09/13 03:44:57;;;;;;;9.20;3.08;;;;;;;;;;5041392;28;20129;-81
2023/09/13 03:47:23;;;;;;;12.35;3.42;;;;;;;;;;5057425;28;20044;-81
2023/09/13 03:49:49;;;;;;;9.52;3.42;;;;;;;;;;5075622;28;20550;-81
2023/09/13 03:52:15;;;;;;;6.75;2.90;;;;;;;;;;5058402;28;20041;-80
2023/09/13 03:54:41;;;;;;;9.45;3.70;;;;;;;;;;5041451;28;20048;-80
2023/09/13 03:57:07;;;;;;;10.05;3.55;;;;;;;;;;5040992;28;20040;-81
2023/09/13 03:59:33;;;;;;;8.15;3.63;;;;;;;;;;5041131;28;20127;-80
2023/09/13 04:01:59;;;;;;;10.77;3.65;;;;;;;;;;5057444;28;20091;-81
2023/09/13 04:04:25;;;;;;;6.10;3.67;;;;;;;;;;5057580;28;20135;-80
2023/09/13 04:06:51;;;;;;;7.05;3.67;;;;;;;;;;5058168;28;20492;-81
2023/09/13 04:09:18;;;;;;;9.93;4.05;;;;;;;;;;5058092;28;20059;-82
2023/09/13 04:11:44;;;;;;;10.48;3.85;;;;;;;;;;5041609;28;20135;-82
2023/09/13 04:14:10;;;;;;;10.05;4.38;;;;;;;;;;5042002;28;20119;-81
2023/09/13 04:16:37;;;;;;;7.43;4.07;;;;;;;;;;5024742;28;20464;-82
2023/09/13 04:19:03;;;;;;;7.45;4.40;;;;;;;;;;5058015;28;20045;-80
2023/09/13 04:21:29;;;;;;;6.13;3.85;;;;;;;;;;5057597;28;20032;-81
2023/09/13 04:23:58;;;;;;;9.65;5.25;;;;;;;;;;5040727;28;20044;-82
2023/09/13 04:26:24;;;;;;;9.88;4.95;;;;;;;;;;5056503;28;20053;-82
2023/09/13 04:28:50;;;;;;;7.65;4.85;;;;;;;;;;5074933;28;20051;-82
2023/09/13 04:31:16;;;;;;;7.97;4.90;;;;;;;;;;5040560;28;20044;-82
2023/09/13 04:33:46;;;;;;;7.28;4.95;;;;;;;;;;5057381;28;20484;-83
2023/09/13 04:36:12;;;;;;;6.45;4.95;;;;;;;;;;5040839;28;20052;-83
2023/09/13 04:38:38;;;;;;;13.52;5.60;;;;;;;;;;5040950;28;20059;-83
2023/09/13 04:41:09;;;;;;;12.90;5.05;;;;;;;;;;5069003;28;20093;-83
2023/09/13 04:43:36;;;;;;;10.80;5.38;;;;;;;;;;5077048;28;20456;-83
2023/09/13 04:46:02;;;;;;;10.50;5.20;;;;;;;;;;5060574;28;20450;-83
2023/09/13 04:48:28;;;;;;;11.23;5.53;;;;;;;;;;5060548;28;20047;-83
2023/09/13 04:50:54;;;;;;;7.90;5.40;;;;;;;;;;5095434;28;20044;-83
2023/09/13 04:53:20;;;;;;;10.55;5.50;;;;;;;;;;5077865;28;20044;-83
2023/09/13 04:55:46;;;;;;;9.63;5.53;;;;;;;;;;5077471;28;20051;-83
2023/09/13 04:58:14;;;;;;;8.23;5.88;;;;;;;;;;5060164;28;20464;-83
2023/09/13 05:00:40;;;;;;;12.80;5.70;;;;;;;;;;5076801;28;20139;-83
2023/09/13 05:03:06;;;;;;;11.93;6.43;;;;;;;;;;5077886;28;20387;-83
2023/09/13 05:05:32;;;;;;;11.00;5.82;;;;;;;;;;5043861;28;20047;-83
2023/09/13 05:07:58;;;;;;;12.82;6.00;;;;;;;;;;5077876;28;20090;-83
2023/09/13 05:10:24;;;;;;;10.77;5.82;;;;;;;;;;5077648;28;20044;-83
2023/09/13 05:12:50;;;;;;;8.93;6.72;;;;;;;;;;5063959;28;20185;-83
2023/09/13 05:15:16;;;;;;;10.50;6.45;;;;;;;;;;5081575;28;20406;-86
2023/09/13 05:17:42;;;;;;;11.13;6.22;;;;;;;;;;5081449;28;20036;-83
2023/09/13 05:20:08;;;;;;;10.35;5.90;;;;;;;;;;5081352;28;20047;-83
2023/09/13 05:22:35;;;;;;;10.15;6.28;;;;;;;;;;5081412;28;20042;-82
2023/09/13 05:25:01;;;;;;;12.38;6.63;;;;;;;;;;5081654;28;20123;-83
2023/09/13 05:27:27;;;;;;;12.02;6.60;;;;;;;;;;5064132;28;20048;-82
2023/09/13 05:29:53;;;;;;;9.70;5.97;;;;;;;;;;5064463;28;20036;-83
2023/09/13 05:32:19;;;;;;;10.65;5.97;;;;;;;;;;5064294;28;20098;-83
2023/09/13 05:34:46;;;;;;;10.90;5.40;;;;;;;;;;5064349;28;20480;-84
2023/09/13 05:37:18;;;;;;;7.15;5.32;;;;;;;;;;5080711;28;20062;-84
2023/09/13 05:39:44;;;;;;;10.63;5.43;;;;;;;;;;5079720;28;20044;-83
2023/09/13 05:42:10;;;;;;;11.57;5.80;;;;;;;;;;5043921;28;20060;-84
2023/09/13 05:44:36;;;;;;;9.85;5.60;;;;;;;;;;5044181;28;20047;-84
2023/09/13 05:47:03;;;;;;;12.55;5.43;;;;;;;;;;5077934;28;20052;-84
2023/09/13 05:49:29;;;;;;;10.50;5.55;;;;;;;;;;5060511;28;20091;-84
2023/09/13 05:51:55;;;;;;;11.98;5.70;;;;;;;;;;5044881;28;20069;-84
2023/09/13 05:54:22;;;;;;;10.98;5.10;;;;;;;;;;5043703;28;20053;-84
2023/09/13 05:56:48;;;;;;;8.63;4.97;;;;;;;;;;5060128;28;20041;-85
2023/09/13 05:59:14;;;;;;;11.45;5.18;;;;;;;;;;5061872;28;20049;-85
2023/09/13 06:01:40;;;;;;;10.20;5.45;;;;;;;;;;5060712;28;20055;-85
2023/09/13 06:04:07;;;;;;;10.70;4.22;;;;;;;;;;5060553;28;20041;-86
2023/09/13 06:06:34;;;;;;;14.82;3.72;;;;;;;;;;5060255;28;20051;-83
2023/09/13 06:09:03;;;;;;;11.82;2.60;;;;;;;;;;5058966;28;20045;-80
2023/09/13 06:11:29;;;;;;;12.57;2.20;;;;;;;;;;5059335;28;20055;-82
2023/09/13 06:13:55;;;;;;;8.20;1.67;;;;;;;;;;5059162;28;20098;-78
2023/09/13 06:16:21;;;;;;;5.38;1.42;;;;;;;;;;5058671;28;20044;-79
2023/09/13 06:18:47;;;;;;;6.82;1.08;;;;;;;;;;5058800;28;20044;-81
2023/09/13 06:21:14;;;;;;;5.57;1.15;;;;;;;;;;5058864;28;20049;-80
2023/09/13 06:23:40;;;;;;;8.38;1.05;;;;;;;;;;5058470;28;20064;-81
2023/09/13 06:26:07;;;;;;;10.73;1.33;;;;;;;;;;5042438;28;20044;-81
2023/09/13 06:28:33;;;;;;;10.13;1.05;;;;;;;;;;5058793;28;20388;-81
2023/09/13 06:31:00;;;;;;;5.13;1.02;;;;;;;;;;5059089;28;20056;-83
2023/09/13 06:33:26;;;;;;;5.28;1.05;;;;;;;;;;5042216;28;20060;-80
2023/09/13 06:35:54;;;;;;;8.57;1.20;;;;;;;;;;5042310;28;20049;-80
2023/09/13 06:38:20;;;;;;;9.25;1.10;;;;;;;;;;5059339;28;20128;-82
2023/09/13 06:40:48;;;;;;;4.45;0.80;;;;;;;;;;5067841;28;20118;-81
2023/09/13 06:43:18;;;;;;;6.05;0.70;;;;;;;;;;5079020;28;20396;-80
2023/09/13 06:45:44;;;;;;;6.72;0.93;;;;;;;;;;5079232;28;20127;-84
2023/09/13 06:48:10;;;;;;;8.80;0.65;;;;;;;;;;5097274;28;20048;-85
2023/09/13 06:50:36;;;;;;;5.53;0.77;;;;;;;;;;5079251;28;20048;-85
2023/09/13 06:53:02;;;;;;;1.80;0.47;;;;;;;;;;5078234;28;20479;-81
2023/09/13 06:55:31;;;;;;;4.07;0.47;;;;;;;;;;5078552;28;20083;-80
2023/09/13 06:57:58;;;;;;;3.15;0.40;;;;;;;;;;5095961;28;20105;-80
2023/09/13 07:00:24;;;;;;;4.03;0.47;;;;;;;;;;5096074;28;20036;-85
2023/09/13 07:02:50;;;;;;;4.68;0.73;;;;;;;;;;5078874;28;20047;-85
2023/09/13 07:05:16;;;;;;;3.88;0.82;;;;;;;;;;5078793;28;20475;-83
2023/09/13 07:07:42;;;;;;;3.70;0.68;;;;;;;;;;5062347;28;20490;-83
2023/09/13 07:10:08;;;;;;;2.80;0.60;;;;;;;;;;5078876;28;20097;-83
2023/09/13 07:12:34;;;;;;;6.25;0.50;;;;;;;;;;5078682;28;20044;-83
2023/09/13 07:15:01;;;;;;;6.57;0.90;;;;;;;;;;5061780;28;20479;-83
2023/09/13 07:17:28;;;;;;;3.13;0.40;;;;;;;;;;5078628;28;20126;-83
2023/09/13 07:19:55;;;;;;;2.72;0.40;;;;;;;;;;5096323;28;20040;-83
2023/09/13 07:22:21;;;;;;;2.00;0.50;;;;;;;;;;5078141;28;20051;-84
2023/09/13 07:24:47;;;;;;;1.05;0.30;;;;;;;;;;5096401;28;20046;-85
2023/09/13 07:27:13;;;;;;;1.95;0.30;;;;;;;;;;5095611;28;20542;-86
2023/09/13 07:29:40;;;;;;;1.42;0.50;;;;;;;;;;5078620;28;20476;-86
2023/09/13 07:32:06;;;;;;;2.55;0.40;;;;;;;;;;5061778;28;20044;-86
2023/09/13 07:34:32;;;;;;;3.15;0.50;;;;;;;;;;5096458;28;20101;-86
2023/09/13 07:36:58;;;;;;;3.38;0.68;;;;;;;;;;5079286;28;20076;-84
2023/09/13 07:39:24;;;;;;;3.60;0.90;;;;;;;;;;5078294;28;20044;-86
2023/09/13 07:41:50;;;;;;;4.45;0.70;;;;;;;;;;5077876;28;20131;-85
2023/09/13 07:44:17;;;;;;;3.13;0.70;;;;;;;;;;5078102;28;20052;-85
2023/09/13 07:46:43;;;;;;;4.60;0.60;;;;;;;;;;5078945;28;20051;-84
2023/09/13 07:49:09;;;;;;;6.25;0.80;;;;;;;;;;5078264;28;20097;-86
2023/09/13 07:51:36;;;;;;;2.38;0.77;;;;;;;;;;5061700;28;20056;-84
2023/09/13 07:54:07;;;;;;;4.20;1.00;;;;;;;;;;5078201;28;20044;-84
2023/09/13 07:56:34;;;;;;;7.10;0.85;;;;;;;;;;5078031;28;20051;-85
2023/09/13 07:59:00;;;;;;;4.57;1.10;;;;;;;;;;5077735;28;20451;-84
2023/09/13 08:01:26;;;;;;;4.75;1.00;;;;;;;;;;5077564;28;20484;-84
2023/09/13 08:03:52;;;;;;;5.13;0.90;;;;;;;;;;5077709;28;20480;-83
2023/09/13 08:06:22;;;;;;;3.95;1.52;;;;;;;;;;5061459;28;20478;-83
2023/09/13 08:08:48;;;;;;;5.32;1.25;;;;;;;;;;5077935;28;20104;-83
2023/09/13 08:11:14;;;;;;;5.38;1.02;;;;;;;;;;5077461;28;20050;-83
2023/09/13 08:13:40;;;;;;;6.30;1.13;;;;;;;;;;5061283;28;20047;-83
2023/09/13 08:16:07;;;;;;;4.50;1.23;;;;;;;;;;5077544;28;20048;-84
2023/09/13 08:18:33;;;;;;;4.32;1.30;;;;;;;;;;5077768;28;20044;-83
2023/09/13 08:20:59;;;;;;;4.60;1.52;;;;;;;;;;5077793;28;20044;-83
2023/09/13 08:23:25;;;;;;;5.20;1.10;;;;;;;;;;5077740;28;20111;-83
2023/09/13 08:25:51;;;;;;;8.88;1.65;;;;;;;;;;5061037;28;20463;-83
2023/09/13 08:28:17;;;;;;;5.28;1.55;;;;;;;;;;5072213;28;20043;-83
2023/09/13 08:30:44;;;;;;;6.15;1.67;;;;;;;;;;5080641;28;20040;-82
2023/09/13 08:33:11;;;;;;;9.15;1.80;;;;;;;;;;5097275;28;20394;-83
2023/09/13 08:35:37;;;;;;;6.15;1.48;;;;;;;;;;5070131;28;20048;-82
2023/09/13 08:38:04;;;;;;;9.30;1.92;;;;;;;;;;5040387;28;20049;-83
2023/09/13 08:40:30;;;;;;;7.47;1.90;;;;;;;;;;5056533;28;20139;-83
2023/09/13 08:42:56;;;;;;;7.65;1.95;;;;;;;;;;5040741;28;20059;-83
2023/09/13 08:45:23;;;;;;;8.20;1.70;;;;;;;;;;5057642;28;20146;-84
2023/09/13 08:47:49;;;;;;;5.70;1.88;;;;;;;;;;5040815;28;20051;-84
2023/09/13 08:50:23;;;;;;;7.07;2.28;;;;;;;;;;5058011;28;20135;-84
2023/09/13 08:52:49;;;;;;;12.10;2.05;;;;;;;;;;5040521;28;20411;-84
2023/09/13 08:55:16;;;;;;;21.77;6.30;;;;;;;;;;5056695;28;20054;-83
2023/09/13 08:57:42;;;;;;;24.05;8.48;;;;;;;;;;5056656;28;20076;-83
2023/09/13 09:00:09;;;;;;;5.85;1.73;;;;;;;;;;5023924;28;20041;-83
2023/09/13 09:02:36;;;;;;;7.80;1.70;;;;;;;;;;5056904;28;20071;-84
2023/09/13 09:05:04;;;;;;;3.95;1.45;;;;;;;;;;5056864;28;20048;-84
2023/09/13 09:07:30;;;;;;;8.07;1.77;;;;;;;;;;5041076;28;20048;-84
2023/09/13 09:09:58;;;;;;;4.45;1.45;;;;;;;;;;5040578;28;20062;-86
2023/09/13 09:12:27;;;;;;;7.95;1.75;;;;;;;;;;5040427;28;20098;-85
2023/09/13 09:14:53;;;;;;;6.13;1.95;;;;;;;;;;5041032;28;20120;-85
2023/09/13 09:17:22;;;;;;;4.55;1.50;;;;;;;;;;5041042;28;20469;-84
2023/09/13 09:19:48;;;;;;;5.00;1.98;;;;;;;;;;5024348;28;20045;-85
2023/09/13 09:22:16;;;;;;;5.00;1.48;;;;;;;;;;5056699;28;20041;-85
2023/09/13 09:24:42;;;;;;;6.55;1.65;;;;;;;;;;5056978;28;20059;-84
2023/09/13 09:27:10;;;;;;;4.53;1.73;;;;;;;;;;5040358;28;20430;-85
2023/09/13 09:29:39;;;;;;;8.23;2.30;;;;;;;;;;5041188;28;20055;-87
2023/09/13 09:32:08;;;;;;;6.18;1.90;;;;;;;;;;5024954;28;20484;-84
2023/09/13 09:34:37;;;;;;;4.95;1.88;;;;;;;;;;5057155;28;20044;-82
2023/09/13 09:37:06;;;;;;;4.80;1.98;;;;;;;;;;5074898;28;20044;-83
2023/09/13 09:39:36;;;;;;;3.15;1.52;;;;;;;;;;5041279;28;20043;-83
2023/09/13 09:42:02;;;;;;;6.30;1.83;;;;;;;;;;5056913;28;20078;-83
2023/09/13 09:44:28;;;;;;;3.53;1.65;;;;;;;;;;5040867;28;20094;-83
2023/09/13 09:46:55;;;;;;;3.55;1.52;;;;;;;;;;5040294;28;20093;-83
2023/09/13 09:49:21;;;;;;;4.10;1.80;;;;;;;;;;5056237;28;20044;-82
2023/09/13 09:51:47;;;;;;;3.05;1.65;;;;;;;;;;5056725;28;20044;-83
2023/09/13 09:54:13;;;;;;;3.80;1.42;;;;;;;;;;5023826;28;20059;-84
2023/09/13 09:56:40;;;;;;;3.83;1.10;;;;;;;;;;5055943;28;20481;-82
2023/09/13 09:59:06;;;;;;;6.20;1.67;;;;;;;;;;5057977;28;20040;-83
2023/09/13 10:01:33;;;;;;;5.03;1.35;;;;;;;;;;5060272;28;20461;-83
2023/09/13 10:04:09;;;;;;;7.68;1.40;;;;;;;;;;5043642;28;20427;-84
2023/09/13 10:06:35;;;;;;;4.47;1.02;;;;;;;;;;5059928;28;20423;-83
2023/09/13 10:09:04;;;;;;;5.78;1.40;;;;;;;;;;5043611;28;20055;-84
2023/09/13 10:11:30;;;;;;;6.03;1.63;;;;;;;;;;5060768;28;20051;-83
2023/09/13 10:13:56;;;;;;;3.45;0.85;;;;;;;;;;5043047;28;20052;-84
2023/09/13 10:16:26;;;;;;;3.85;1.05;;;;;;;;;;5060154;28;20048;-83
2023/09/13 10:18:54;;;;;;;2.78;0.80;;;;;;;;;;5043544;28;20049;-83
2023/09/13 10:21:24;;;;;;;6.30;1.13;;;;;;;;;;5077384;28;20048;-83
2023/09/13 10:23:57;;;;;;;5.65;1.25;;;;;;;;;;5060112;28;20408;-84
2023/09/13 10:26:25;;;;;;;9.13;1.88;;;;;;;;;;5060576;28;20053;-83
2023/09/13 10:28:52;;;;;;;2.00;0.80;;;;;;;;;;5059106;28;20048;-83
2023/09/13 10:31:27;;;;;;;6.28;1.02;;;;;;;;;;5059325;28;20088;-84
2023/09/13 10:33:53;;;;;;;5.97;1.02;;;;;;;;;;5060007;28;20472;-84
2023/09/13 10:36:27;;;;;;;3.33;1.00;;;;;;;;;;5059700;28;20041;-85
2023/09/13 10:38:59;;;;;;;4.75;0.90;;;;;;;;;;5060422;28;20044;-85
2023/09/13 10:41:29;;;;;;;6.18;1.05;;;;;;;;;;5059079;28;20382;-86
2023/09/13 10:43:55;;;;;;;2.90;0.90;;;;;;;;;;5059666;28;20055;-86
2023/09/13 10:46:22;;;;;;;4.53;0.88;;;;;;;;;;5059656;28;20392;-86
2023/09/13 10:48:48;;;;;;;4.80;0.88;;;;;;;;;;5059973;28;20044;-86
2023/09/13 10:51:16;;;;;;;3.97;0.80;;;;;;;;;;5059042;28;20094;-85
2023/09/13 10:53:45;;;;;;;4.38;0.75;;;;;;;;;;5059714;28;20053;-86
2023/09/13 10:56:12;;;;;;;3.17;0.80;;;;;;;;;;5059832;28;20052;-86
2023/09/13 10:58:39;;;;;;;4.70;0.73;;;;;;;;;;5042853;28;20063;-85
2023/09/13 11:01:05;;;;;;;5.22;0.75;;;;;;;;;;5059519;28;20075;-85
2023/09/13 11:03:32;;;;;;;4.00;0.60;;;;;;;;;;5059735;28;20063;-85
2023/09/13 11:05:59;;;;;;;4.60;0.73;;;;;;;;;;5059494;28;20131;-86
2023/09/13 11:08:28;;;;;;;3.42;0.65;;;;;;;;;;5059047;28;20055;-85
2023/09/13 11:10:55;;;;;;;3.67;0.60;;;;;;;;;;5064423;28;20163;-86
2023/09/13 11:13:29;;;;;;;4.15;0.60;;;;;;;;;;5074087;28;20045;-86
2023/09/13 11:16:01;;;;;;;1.77;0.50;;;;;;;;;;5075957;28;20111;-86
2023/09/13 11:18:27;;;;;;;4.85;0.70;;;;;;;;;;5076033;28;20140;-84
2023/09/13 11:20:54;;;;;;;4.85;0.70;;;;;;;;;;5061731;28;20040;-86
2023/09/13 11:23:20;;;;;;;5.68;0.68;;;;;;;;;;5078519;28;20124;-85
2023/09/13 11:25:49;;;;;;;6.97;1.00;;;;;;;;;;5078558;28;20049;-85
2023/09/13 11:28:29;;;;;;;5.25;1.08;;;;;;;;;;5075228;28;20117;-84
2023/09/13 11:30:59;;;;;;;5.45;0.82;;;;;;;;;;5067238;28;20039;-85
2023/09/13 11:33:32;;;;;;;4.80;1.17;;;;;;;;;;5068291;28;20082;-83
2023/09/13 11:35:59;;;;;;;4.90;0.82;;;;;;;;;;5077888;28;20080;-85
2023/09/13 11:38:26;;;;;;;3.15;0.98;;;;;;;;;;5087999;28;20050;-85
2023/09/13 11:40:58;;;;;;;5.93;1.30;;;;;;;;;;5098535;28;20059;-83
2023/09/13 11:43:26;;;;;;;6.40;0.88;;;;;;;;;;5098355;28;20044;-83
2023/09/13 11:45:55;;;;;;;5.30;1.30;;;;;;;;;;5103332;28;20054;-83
2023/09/13 11:48:28;;;;;;;4.35;0.93;;;;;;;;;;5066733;28;20044;-84
2023/09/13 11:50:55;;;;;;;5.20;1.23;;;;;;;;;;5078001;28;20091;-83
2023/09/13 11:53:28;;;;;;;6.25;1.13;;;;;;;;;;5086176;28;20040;-83
2023/09/13 11:55:55;;;;;;;5.15;0.80;;;;;;;;;;5116350;28;20043;-84
2023/09/13 11:58:34;;;;;;;4.97;1.17;;;;;;;;;;5115574;28;20192;-83
2023/09/13 12:01:01;;;;;;;4.43;0.80;;;;;;;;;;5098148;28;20044;-84
2023/09/13 12:03:31;;;;;;;7.15;1.30;;;;;;;;;;5098209;28;20365;-84
2023/09/13 12:05:58;;;;;;;5.38;1.00;;;;;;;;;;5077088;28;20392;-84
2023/09/13 12:08:25;;;;;;;3.22;0.88;;;;;;;;;;5077882;28;20083;-83
2023/09/13 12:10:51;;;;;;;2.85;0.90;;;;;;;;;;5077922;28;20051;-83
2023/09/13 12:13:18;;;;;;;4.93;1.13;;;;;;;;;;5077918;28;20044;-84
2023/09/13 12:15:57;;;;;;;2.38;0.90;;;;;;;;;;5077559;28;20047;-83
2023/09/13 12:18:24;;;;;;;4.63;1.02;;;;;;;;;;5077731;28;20480;-83
2023/09/13 12:20:50;;;;;;;4.45;0.98;;;;;;;;;;5075552;28;20127;-85
2023/09/13 12:23:19;;;;;;;3.83;0.90;;;;;;;;;;5057084;28;20037;-84
2023/09/13 12:25:46;;;;;;;3.15;0.90;;;;;;;;;;5063433;28;20047;-84
2023/09/13 12:28:12;;;;;;;6.88;1.35;;;;;;;;;;5061866;28;20044;-83
2023/09/13 12:30:38;;;;;;;6.28;1.50;;;;;;;;;;5076322;28;20052;-83
2023/09/13 12:33:04;;;;;;;5.25;1.20;;;;;;;;;;5077182;28;20066;-83
2023/09/13 12:35:31;;;;;;;5.50;1.15;;;;;;;;;;5093840;28;20119;-84
2023/09/13 12:38:00;;;;;;;5.95;0.70;;;;;;;;;;5077595;28;20106;-83
2023/09/13 12:40:27;;;;;;;3.58;0.93;;;;;;;;;;5077035;28;20059;-84
2023/09/13 12:42:58;;;;;;;2.25;0.80;;;;;;;;;;5077686;28;20150;-84
2023/09/13 12:45:28;;;;;;;4.07;1.08;;;;;;;;;;5077311;28;20151;-84
2023/09/13 12:47:55;;;;;;;4.57;0.75;;;;;;;;;;5077394;28;20547;-83
2023/09/13 12:50:21;;;;;;;4.78;0.70;;;;;;;;;;5060636;28;20086;-84
2023/09/13 12:52:51;;;;;;;1.95;0.80;;;;;;;;;;5060550;28;20079;-82
2023/09/13 12:55:17;;;;;;;2.10;0.70;;;;;;;;;;5077174;28;20066;-83
2023/09/13 12:57:43;;;;;;;3.53;0.75;;;;;;;;;;5076771;28;20079;-84
2023/09/13 13:00:12;;;;;;;1.77;0.50;;;;;;;;;;5057069;28;20044;-83
2023/09/13 13:02:39;;;;;;;2.25;0.50;;;;;;;;;;5040268;28;20044;-83
2023/09/13 13:05:05;;;;;;;2.28;0.60;;;;;;;;;;5040682;28;20041;-83
2023/09/13 13:07:33;;;;;;;2.05;0.60;;;;;;;;;;5057586;28;20049;-83
2023/09/13 13:10:04;;;;;;;1.65;0.70;;;;;;;;;;5057127;28;20052;-84
2023/09/13 13:12:30;;;;;;;3.47;0.60;;;;;;;;;;5056860;28;20418;-84
2023/09/13 13:14:57;;;;;;;2.85;0.70;;;;;;;;;;5040425;28;20049;-84
2023/09/13 13:17:24;;;;;;;3.63;0.68;;;;;;;;;;5058224;28;20052;-84
2023/09/13 13:19:51;;;;;;;7.82;0.88;;;;;;;;;;5024090;28;20110;-84
2023/09/13 13:22:18;;;;;;;1.88;0.60;;;;;;;;;;5057373;28;20045;-85
2023/09/13 13:24:44;;;;;;;2.72;0.63;;;;;;;;;;5057282;28;20040;-84
2023/09/13 13:27:11;;;;;;;4.57;1.00;;;;;;;;;;5073963;28;20055;-84
2023/09/13 13:29:38;;;;;;;4.55;0.82;;;;;;;;;;5056775;28;20139;-84
2023/09/13 13:32:04;;;;;;;4.55;0.77;;;;;;;;;;5057070;28;20044;-84
2023/09/13 13:34:31;;;;;;;3.55;0.70;;;;;;;;;;5060639;28;20487;-84
2023/09/13 13:36:57;;;;;;;5.82;1.38;;;;;;;;;;5060867;28;20052;-84
2023/09/13 13:39:23;;;;;;;4.65;1.00;;;;;;;;;;5060270;28;20053;-83
2023/09/13 13:41:49;;;;;;;3.60;0.52;;;;;;;;;;5043191;28;20451;-84
2023/09/13 13:44:17;;;;;;;4.00;0.70;;;;;;;;;;5065432;28;20048;-83
2023/09/13 13:46:44;;;;;;;5.07;0.90;;;;;;;;;;5081128;28;20047;-87
2023/09/13 13:49:14;;;;;;;2.80;0.57;;;;;;;;;;5064962;28;20048;-88
2023/09/13 13:51:40;;;;;;;3.25;0.65;;;;;;;;;;5081466;28;20052;-88
2023/09/13 13:54:06;;;;;;;5.45;0.98;;;;;;;;;;5081029;28;20050;-88
2023/09/13 13:56:35;;;;;;;4.07;0.85;;;;;;;;;;5064071;28;20484;-85
2023/09/13 13:59:01;;;;;;;4.10;0.55;;;;;;;;;;5063353;28;20097;-84
2023/09/13 14:01:27;;;;;;;4.20;1.02;;;;;;;;;;5080528;28;20040;-85
2023/09/13 14:03:53;;;;;;;2.45;0.50;;;;;;;;;;5080013;28;20079;-85
2023/09/13 14:06:19;;;;;;;4.43;0.50;;;;;;;;;;5047349;28;20044;-86
2023/09/13 14:08:45;;;;;;;3.47;0.82;;;;;;;;;;5063323;28;20040;-84
2023/09/13 14:11:11;;;;;;;3.45;0.50;;;;;;;;;;5046727;28;20136;-86
2023/09/13 14:13:37;;;;;;;3.70;0.70;;;;;;;;;;5047124;28;20044;-85
2023/09/13 14:16:03;;;;;;;3.38;0.60;;;;;;;;;;5063046;28;20050;-83
2023/09/13 14:18:29;;;;;;;3.80;0.60;;;;;;;;;;5097618;28;20044;-82
2023/09/13 14:20:55;;;;;;;5.93;0.80;;;;;;;;;;5098028;28;20043;-82
2023/09/13 14:23:22;;;;;;;5.47;0.50;;;;;;;;;;5079383;28;20052;-82
2023/09/13 14:25:48;;;;;;;6.15;0.85;;;;;;;;;;5063520;28;20067;-85
2023/09/13 14:28:14;;;;;;;12.75;0.70;;;;;;;;;;5097822;28;20594;-83
2023/09/13 14:30:41;;;;;;;4.57;0.57;;;;;;;;;;5063132;28;20396;-83
2023/09/13 14:33:07;;;;;;;8.95;0.85;;;;;;;;;;5079836;28;20434;-84
2023/09/13 14:35:33;;;;;;;7.65;0.85;;;;;;;;;;5079636;28;20472;-84